sensor_id;sensor_type;location;lat;lon;timestamp;pressure;altitude;pressure_sealevel;temperature;humidity
19594;BME280;9944;48.240;16.478;2024-03-17T00:00:52;100244.00;;;9.91;67.22
19594;BME280;9944;48.240;16.478;2024-03-17T00:05:15;100253.63;;;9.84;67.61
19594;BME280;9944;48.240;16.478;2024-03-17T00:09:41;100250.94;;;9.79;67.12
19594;BME280;9944;48.240;16.478;2024-03-17T00:14:03;100228.06;;;9.74;67.57
19594;BME280;9944;48.240;16.478;2024-03-17T00:18:25;100247.34;;;9.69;67.78
19594;BME280;9944;48.240;16.478;2024-03-17T00:22:49;100230.66;;;9.71;67.88
19594;BME280;9944;48.240;16.478;2024-03-17T00:27:13;100239.41;;;9.65;67.79
19594;BME280;9944;48.240;16.478;2024-03-17T00:31:36;100222.69;;;9.61;67.69
19594;BME280;9944;48.240;16.478;2024-03-17T00:35:59;100240.22;;;9.56;68.12
19594;BME280;9944;48.240;16.478;2024-03-17T00:40:21;100247.25;;;9.59;67.99
19594;BME280;9944;48.240;16.478;2024-03-17T00:44:45;100231.41;;;9.54;68.19
19594;BME280;9944;48.240;16.478;2024-03-17T00:49:07;100243.69;;;9.52;68.02
19594;BME280;9944;48.240;16.478;2024-03-17T00:53:29;100247.22;;;9.51;68.26
19594;BME280;9944;48.240;16.478;2024-03-17T00:57:52;100260.38;;;9.49;68.15
19594;BME280;9944;48.240;16.478;2024-03-17T01:02:16;100243.66;;;9.46;68.44
19594;BME280;9944;48.240;16.478;2024-03-17T01:06:39;100258.56;;;9.41;68.56
19594;BME280;9944;48.240;16.478;2024-03-17T01:11:02;100269.94;;;9.38;68.79
19594;BME280;9944;48.240;16.478;2024-03-17T01:15:25;100254.94;;;9.31;68.89
19594;BME280;9944;48.240;16.478;2024-03-17T01:19:48;100255.81;;;9.31;69.03
19594;BME280;9944;48.240;16.478;2024-03-17T01:24:12;100249.63;;;9.25;68.97
19594;BME280;9944;48.240;16.478;2024-03-17T01:28:35;100271.53;;;9.21;69.37
19594;BME280;9944;48.240;16.478;2024-03-17T01:32:57;100284.66;;;9.16;69.38
19594;BME280;9944;48.240;16.478;2024-03-17T01:37:21;100295.19;;;9.16;69.44
19594;BME280;9944;48.240;16.478;2024-03-17T01:41:45;100292.56;;;9.15;69.62
19594;BME280;9944;48.240;16.478;2024-03-17T01:46:12;100306.53;;;9.09;67.83
19594;BME280;9944;48.240;16.478;2024-03-17T01:50:36;100313.41;;;8.95;65.70
19594;BME280;9944;48.240;16.478;2024-03-17T01:54:59;100304.38;;;8.74;64.58
19594;BME280;9944;48.240;16.478;2024-03-17T01:59:22;100311.25;;;8.60;63.04
19594;BME280;9944;48.240;16.478;2024-03-17T02:03:44;100306.63;;;8.40;63.46
19594;BME280;9944;48.240;16.478;2024-03-17T02:08:07;100310.75;;;8.26;62.99
19594;BME280;9944;48.240;16.478;2024-03-17T02:12:31;100329.88;;;8.15;62.66
19594;BME280;9944;48.240;16.478;2024-03-17T02:16:54;100327.97;;;8.04;61.36
19594;BME280;9944;48.240;16.478;2024-03-17T02:21:16;100327.78;;;7.91;61.34
19594;BME280;9944;48.240;16.478;2024-03-17T02:25:40;100329.31;;;7.78;61.65
19594;BME280;9944;48.240;16.478;2024-03-17T02:30:02;100333.56;;;7.70;60.93
19594;BME280;9944;48.240;16.478;2024-03-17T02:34:25;100342.19;;;7.60;61.04
19594;BME280;9944;48.240;16.478;2024-03-17T02:38:47;100341.22;;;7.55;61.04
19594;BME280;9944;48.240;16.478;2024-03-17T02:43:28;100329.72;;;7.48;60.75
19594;BME280;9944;48.240;16.478;2024-03-17T02:47:50;100338.38;;;7.44;60.33
19594;BME280;9944;48.240;16.478;2024-03-17T02:52:13;100346.94;;;7.34;60.17
19594;BME280;9944;48.240;16.478;2024-03-17T02:56:35;100366.97;;;7.27;59.91
19594;BME280;9944;48.240;16.478;2024-03-17T03:00:59;100372.16;;;7.24;60.05
19594;BME280;9944;48.240;16.478;2024-03-17T03:05:21;100374.75;;;7.22;59.86
19594;BME280;9944;48.240;16.478;2024-03-17T03:09:43;100372.03;;;7.18;60.27
19594;BME280;9944;48.240;16.478;2024-03-17T03:14:05;100377.22;;;7.15;60.20
19594;BME280;9944;48.240;16.478;2024-03-17T03:18:29;100376.28;;;7.10;59.81
19594;BME280;9944;48.240;16.478;2024-03-17T03:22:51;100377.00;;;7.04;60.21
19594;BME280;9944;48.240;16.478;2024-03-17T03:27:13;100380.41;;;6.98;60.68
19594;BME280;9944;48.240;16.478;2024-03-17T03:31:36;100364.53;;;6.92;60.95
19594;BME280;9944;48.240;16.478;2024-03-17T03:36:08;100371.44;;;6.89;61.07
19594;BME280;9944;48.240;16.478;2024-03-17T03:40:31;100387.03;;;6.81;61.27
19594;BME280;9944;48.240;16.478;2024-03-17T03:44:54;100393.06;;;6.75;61.52
19594;BME280;9944;48.240;16.478;2024-03-17T03:49:16;100411.38;;;6.74;61.64
19594;BME280;9944;48.240;16.478;2024-03-17T03:53:41;100411.25;;;6.67;61.35
19594;BME280;9944;48.240;16.478;2024-03-17T03:58:04;100411.25;;;6.67;61.78
19594;BME280;9944;48.240;16.478;2024-03-17T04:02:27;100406.78;;;6.63;61.63
19594;BME280;9944;48.240;16.478;2024-03-17T04:06:52;100407.63;;;6.62;61.98
19594;BME280;9944;48.240;16.478;2024-03-17T04:11:15;100407.59;;;6.59;62.20
19594;BME280;9944;48.240;16.478;2024-03-17T04:15:38;100414.50;;;6.57;62.52
19594;BME280;9944;48.240;16.478;2024-03-17T04:20:00;100420.47;;;6.50;62.13
19594;BME280;9944;48.240;16.478;2024-03-17T04:24:22;100425.63;;;6.47;62.17
19594;BME280;9944;48.240;16.478;2024-03-17T04:28:46;100422.84;;;6.41;62.15
19594;BME280;9944;48.240;16.478;2024-03-17T04:33:09;100428.03;;;6.38;62.28
19594;BME280;9944;48.240;16.478;2024-03-17T04:37:32;100434.97;;;6.36;62.38
19594;BME280;9944;48.240;16.478;2024-03-17T04:41:59;100431.50;;;6.37;62.63
19594;BME280;9944;48.240;16.478;2024-03-17T04:46:23;100425.31;;;6.35;62.78
19594;BME280;9944;48.240;16.478;2024-03-17T04:50:46;100430.53;;;6.32;63.00
19594;BME280;9944;48.240;16.478;2024-03-17T04:55:09;100431.34;;;6.30;62.96
19594;BME280;9944;48.240;16.478;2024-03-17T04:59:33;100438.31;;;6.28;63.56
19594;BME280;9944;48.240;16.478;2024-03-17T05:03:57;100446.06;;;6.24;63.06
19594;BME280;9944;48.240;16.478;2024-03-17T05:08:19;100448.63;;;6.22;62.92
19594;BME280;9944;48.240;16.478;2024-03-17T05:12:42;100445.09;;;6.20;63.10
19594;BME280;9944;48.240;16.478;2024-03-17T05:17:04;100443.38;;;6.22;63.03
19594;BME280;9944;48.240;16.478;2024-03-17T05:21:28;100454.75;;;6.21;63.20
19594;BME280;9944;48.240;16.478;2024-03-17T05:25:51;100452.88;;;6.17;62.89
19594;BME280;9944;48.240;16.478;2024-03-17T05:30:14;100457.28;;;6.18;63.18
19594;BME280;9944;48.240;16.478;2024-03-17T05:34:37;100458.97;;;6.16;63.18
19594;BME280;9944;48.240;16.478;2024-03-17T05:39:01;100463.34;;;6.17;63.39
19594;BME280;9944;48.240;16.478;2024-03-17T05:43:24;100469.50;;;6.19;63.38
19594;BME280;9944;48.240;16.478;2024-03-17T05:47:46;100470.31;;;6.15;63.30
19594;BME280;9944;48.240;16.478;2024-03-17T05:52:08;100484.41;;;6.20;63.40
19594;BME280;9944;48.240;16.478;2024-03-17T05:56:32;100480.09;;;6.22;63.46
19594;BME280;9944;48.240;16.478;2024-03-17T06:00:55;100487.34;;;6.33;63.21
19594;BME280;9944;48.240;16.478;2024-03-17T06:05:19;100496.13;;;6.35;63.45
19594;BME280;9944;48.240;16.478;2024-03-17T06:09:41;100499.84;;;6.43;63.39
19594;BME280;9944;48.240;16.478;2024-03-17T06:14:05;100493.94;;;6.52;62.53
19594;BME280;9944;48.240;16.478;2024-03-17T06:18:30;100496.63;;;6.53;62.61
19594;BME280;9944;48.240;16.478;2024-03-17T06:22:52;100487.94;;;6.57;62.26
19594;BME280;9944;48.240;16.478;2024-03-17T06:27:14;100497.78;;;6.66;62.18
19594;BME280;9944;48.240;16.478;2024-03-17T06:31:38;100490.88;;;6.70;61.76
19594;BME280;9944;48.240;16.478;2024-03-17T06:36:01;100488.31;;;6.73;61.11
19594;BME280;9944;48.240;16.478;2024-03-17T06:40:25;100495.38;;;6.75;60.98
19594;BME280;9944;48.240;16.478;2024-03-17T06:44:47;100490.97;;;6.74;60.58
19594;BME280;9944;48.240;16.478;2024-03-17T06:49:11;100487.56;;;6.77;59.85
19594;BME280;9944;48.240;16.478;2024-03-17T06:53:33;100491.94;;;6.78;59.62
19594;BME280;9944;48.240;16.478;2024-03-17T06:57:55;100493.72;;;6.79;59.19
19594;BME280;9944;48.240;16.478;2024-03-17T07:02:18;100497.25;;;6.81;59.03
19594;BME280;9944;48.240;16.478;2024-03-17T07:06:42;100496.41;;;6.82;59.76
19594;BME280;9944;48.240;16.478;2024-03-17T07:11:05;100496.47;;;6.85;59.89
19594;BME280;9944;48.240;16.478;2024-03-17T07:15:28;100506.28;;;6.94;59.82
19594;BME280;9944;48.240;16.478;2024-03-17T07:19:50;100504.50;;;6.91;58.47
19594;BME280;9944;48.240;16.478;2024-03-17T07:24:15;100505.16;;;6.82;59.07
19594;BME280;9944;48.240;16.478;2024-03-17T07:28:37;100520.88;;;6.81;59.10
19594;BME280;9944;48.240;16.478;2024-03-17T07:33:01;100513.88;;;6.81;58.23
19594;BME280;9944;48.240;16.478;2024-03-17T07:37:24;100512.06;;;6.77;58.80
19594;BME280;9944;48.240;16.478;2024-03-17T07:41:47;100521.03;;;6.89;59.41
19594;BME280;9944;48.240;16.478;2024-03-17T07:46:11;100523.78;;;6.93;59.43
19594;BME280;9944;48.240;16.478;2024-03-17T07:50:33;100531.00;;;7.03;59.13
19594;BME280;9944;48.240;16.478;2024-03-17T07:54:55;100526.94;;;7.18;59.43
19594;BME280;9944;48.240;16.478;2024-03-17T07:59:19;100519.53;;;7.39;58.78
19594;BME280;9944;48.240;16.478;2024-03-17T08:03:44;100521.59;;;7.54;58.59
19594;BME280;9944;48.240;16.478;2024-03-17T08:08:07;100522.53;;;7.58;56.23
19594;BME280;9944;48.240;16.478;2024-03-17T08:12:29;100518.06;;;7.54;56.84
19594;BME280;9944;48.240;16.478;2024-03-17T08:16:53;100520.03;;;7.64;57.09
19594;BME280;9944;48.240;16.478;2024-03-17T08:21:15;100509.47;;;7.61;55.78
19594;BME280;9944;48.240;16.478;2024-03-17T08:25:38;100506.09;;;7.68;55.77
19594;BME280;9944;48.240;16.478;2024-03-17T08:30:00;100506.00;;;7.62;54.21
19594;BME280;9944;48.240;16.478;2024-03-17T08:34:24;100510.38;;;7.63;55.56
19594;BME280;9944;48.240;16.478;2024-03-17T08:38:47;100502.56;;;7.66;54.61
19594;BME280;9944;48.240;16.478;2024-03-17T08:43:09;100506.09;;;7.68;54.04
19594;BME280;9944;48.240;16.478;2024-03-17T08:47:31;100491.25;;;7.72;53.98
19594;BME280;9944;48.240;16.478;2024-03-17T08:51:55;100492.25;;;7.77;54.09
19594;BME280;9944;48.240;16.478;2024-03-17T08:56:17;100488.88;;;7.83;54.48
19594;BME280;9944;48.240;16.478;2024-03-17T09:00:41;100489.00;;;7.90;52.94
19594;BME280;9944;48.240;16.478;2024-03-17T09:05:04;100490.78;;;7.93;52.09
19594;BME280;9944;48.240;16.478;2024-03-17T09:09:28;100489.25;;;8.04;52.01
19594;BME280;9944;48.240;16.478;2024-03-17T09:13:50;100488.66;;;8.22;51.25
19594;BME280;9944;48.240;16.478;2024-03-17T09:18:13;100479.06;;;8.26;51.32
19594;BME280;9944;48.240;16.478;2024-03-17T09:22:35;100475.53;;;8.24;51.53
19594;BME280;9944;48.240;16.478;2024-03-17T09:26:59;100473.09;;;8.31;51.28
19594;BME280;9944;48.240;16.478;2024-03-17T09:31:21;100477.63;;;8.43;52.21
19594;BME280;9944;48.240;16.478;2024-03-17T09:35:43;100479.63;;;8.57;52.19
19594;BME280;9944;48.240;16.478;2024-03-17T09:40:13;100479.75;;;8.66;51.61
19594;BME280;9944;48.240;16.478;2024-03-17T09:44:38;100476.38;;;8.76;52.12
19594;BME280;9944;48.240;16.478;2024-03-17T09:49:01;100464.34;;;8.93;52.13
19594;BME280;9944;48.240;16.478;2024-03-17T09:53:25;100460.13;;;9.05;51.44
19594;BME280;9944;48.240;16.478;2024-03-17T09:57:48;100462.72;;;9.02;51.23
19594;BME280;9944;48.240;16.478;2024-03-17T10:02:16;100457.44;;;9.02;52.08
19594;BME280;9944;48.240;16.478;2024-03-17T10:06:45;100457.59;;;9.11;52.32
19594;BME280;9944;48.240;16.478;2024-03-17T10:11:09;100448.16;;;9.33;52.23
19594;BME280;9944;48.240;16.478;2024-03-17T10:15:31;100446.50;;;9.40;50.84
19594;BME280;9944;48.240;16.478;2024-03-17T10:20:11;100444.03;;;9.55;51.12
19594;BME280;9944;48.240;16.478;2024-03-17T10:24:33;100417.88;;;9.74;49.87
19594;BME280;9944;48.240;16.478;2024-03-17T10:28:56;100428.53;;;9.86;50.73
19594;BME280;9944;48.240;16.478;2024-03-17T10:33:23;100429.63;;;10.07;49.60
19594;BME280;9944;48.240;16.478;2024-03-17T10:37:55;100423.69;;;10.35;48.77
19594;BME280;9944;48.240;16.478;2024-03-17T10:42:24;100421.97;;;10.42;48.99
19594;BME280;9944;48.240;16.478;2024-03-17T10:46:48;100418.41;;;10.35;47.50
19594;BME280;9944;48.240;16.478;2024-03-17T10:51:16;100419.09;;;10.10;47.79
19594;BME280;9944;48.240;16.478;2024-03-17T10:55:43;100422.69;;;10.19;48.46
19594;BME280;9944;48.240;16.478;2024-03-17T11:00:06;100399.88;;;10.26;48.22
19594;BME280;9944;48.240;16.478;2024-03-17T11:04:30;100394.63;;;10.31;47.95
19594;BME280;9944;48.240;16.478;2024-03-17T11:08:52;100403.41;;;10.28;47.38
19594;BME280;9944;48.240;16.478;2024-03-17T11:13:24;100391.00;;;10.15;48.10
19594;BME280;9944;48.240;16.478;2024-03-17T11:17:47;100376.97;;;10.20;47.56
19594;BME280;9944;48.240;16.478;2024-03-17T11:27:41;100382.22;;;10.17;48.34
19594;BME280;9944;48.240;16.478;2024-03-17T11:32:25;100382.22;;;10.17;47.27
19594;BME280;9944;48.240;16.478;2024-03-17T11:36:52;100362.84;;;10.12;47.63
19594;BME280;9944;48.240;16.478;2024-03-17T11:41:31;100360.22;;;10.14;47.09
19594;BME280;9944;48.240;16.478;2024-03-17T11:45:59;100351.41;;;10.15;47.17
19594;BME280;9944;48.240;16.478;2024-03-17T11:50:23;100347.03;;;10.14;47.68
19594;BME280;9944;48.240;16.478;2024-03-17T11:54:46;100346.22;;;10.24;47.38
19594;BME280;9944;48.240;16.478;2024-03-17T11:59:09;100332.19;;;10.37;47.27
19594;BME280;9944;48.240;16.478;2024-03-17T12:03:31;100324.34;;;10.43;46.67
19594;BME280;9944;48.240;16.478;2024-03-17T12:07:55;100321.66;;;10.40;47.30
19594;BME280;9944;48.240;16.478;2024-03-17T12:12:18;100310.25;;;10.40;46.08
19594;BME280;9944;48.240;16.478;2024-03-17T12:16:47;100317.25;;;10.41;46.57
19594;BME280;9944;48.240;16.478;2024-03-17T12:21:12;100290.03;;;10.50;46.23
19594;BME280;9944;48.240;16.478;2024-03-17T12:25:36;100294.44;;;10.51;46.75
19594;BME280;9944;48.240;16.478;2024-03-17T12:29:59;100287.41;;;10.51;46.50
19594;BME280;9944;48.240;16.478;2024-03-17T12:34:22;100289.19;;;10.58;45.93
19594;BME280;9944;48.240;16.478;2024-03-17T12:38:45;100281.25;;;10.51;45.52
19594;BME280;9944;48.240;16.478;2024-03-17T12:43:08;100274.19;;;10.45;45.86
19594;BME280;9944;48.240;16.478;2024-03-17T12:47:35;100262.72;;;10.44;46.69
19594;BME280;9944;48.240;16.478;2024-03-17T12:51:57;100266.28;;;10.51;47.17
19594;BME280;9944;48.240;16.478;2024-03-17T12:56:23;100267.16;;;10.49;46.49
19594;BME280;9944;48.240;16.478;2024-03-17T13:01:05;100243.47;;;10.61;46.75
19594;BME280;9944;48.240;16.478;2024-03-17T13:05:28;100249.63;;;10.72;46.11
19594;BME280;9944;48.240;16.478;2024-03-17T13:09:50;100234.69;;;10.79;46.54
19594;BME280;9944;48.240;16.478;2024-03-17T13:14:12;100231.22;;;10.94;46.53
19594;BME280;9944;48.240;16.478;2024-03-17T13:18:39;100225.06;;;11.01;47.01
19594;BME280;9944;48.240;16.478;2024-03-17T13:23:02;100230.34;;;11.13;46.72
19594;BME280;9944;48.240;16.478;2024-03-17T13:27:24;100224.19;;;11.07;46.36
19594;BME280;9944;48.240;16.478;2024-03-17T13:31:46;100222.41;;;11.10;46.86
19594;BME280;9944;48.240;16.478;2024-03-17T13:36:10;100215.38;;;11.09;45.66
19594;BME280;9944;48.240;16.478;2024-03-17T13:40:33;100200.41;;;11.05;46.44
19594;BME280;9944;48.240;16.478;2024-03-17T13:44:55;100198.63;;;11.12;46.58
19594;BME280;9944;48.240;16.478;2024-03-17T13:49:18;100195.13;;;11.22;46.34
19594;BME280;9944;48.240;16.478;2024-03-17T13:53:42;100179.28;;;11.27;45.80
19594;BME280;9944;48.240;16.478;2024-03-17T13:58:06;100178.41;;;11.25;45.95
19594;BME280;9944;48.240;16.478;2024-03-17T14:02:28;100180.16;;;11.30;46.41
19594;BME280;9944;48.240;16.478;2024-03-17T14:06:51;100173.09;;;11.29;46.11
19594;BME280;9944;48.240;16.478;2024-03-17T14:11:14;100166.97;;;11.32;46.55
19594;BME280;9944;48.240;16.478;2024-03-17T14:15:37;100168.72;;;11.27;46.32
19594;BME280;9944;48.240;16.478;2024-03-17T14:19:59;100159.88;;;11.31;46.93
19594;BME280;9944;48.240;16.478;2024-03-17T14:24:21;100162.53;;;11.42;46.14
19594;BME280;9944;48.240;16.478;2024-03-17T14:28:44;100163.41;;;11.45;46.72
19594;BME280;9944;48.240;16.478;2024-03-17T14:33:07;100142.25;;;11.48;45.24
19594;BME280;9944;48.240;16.478;2024-03-17T14:37:29;100145.84;;;11.32;44.85
19594;BME280;9944;48.240;16.478;2024-03-17T14:41:51;100139.63;;;11.22;45.67
19594;BME280;9944;48.240;16.478;2024-03-17T14:46:15;100136.09;;;11.17;45.84
19594;BME280;9944;48.240;16.478;2024-03-17T14:50:38;100131.72;;;11.16;46.16
19594;BME280;9944;48.240;16.478;2024-03-17T14:55:01;100122.03;;;11.16;46.49
19594;BME280;9944;48.240;16.478;2024-03-17T14:59:23;100117.63;;;11.09;45.58
19594;BME280;9944;48.240;16.478;2024-03-17T15:03:47;100108.84;;;11.07;45.57
19594;BME280;9944;48.240;16.478;2024-03-17T15:08:09;100114.09;;;11.01;45.96
19594;BME280;9944;48.240;16.478;2024-03-17T15:12:32;100109.69;;;11.00;45.62
19594;BME280;9944;48.240;16.478;2024-03-17T15:16:54;100113.22;;;10.93;46.71
19594;BME280;9944;48.240;16.478;2024-03-17T15:21:19;100114.09;;;10.98;46.38
19594;BME280;9944;48.240;16.478;2024-03-17T15:25:41;100107.06;;;10.97;46.54
19594;BME280;9944;48.240;16.478;2024-03-17T15:30:04;100105.31;;;10.96;45.75
19594;BME280;9944;48.240;16.478;2024-03-17T15:34:27;100096.50;;;10.91;45.89
19594;BME280;9944;48.240;16.478;2024-03-17T15:38:53;100100.91;;;10.90;46.77
19594;BME280;9944;48.240;16.478;2024-03-17T15:43:16;100095.63;;;10.87;46.58
19594;BME280;9944;48.240;16.478;2024-03-17T15:47:39;100097.38;;;10.85;45.88
19594;BME280;9944;48.240;16.478;2024-03-17T15:52:03;100099.16;;;10.80;46.01
19594;BME280;9944;48.240;16.478;2024-03-17T15:56:26;100110.56;;;10.77;45.69
19594;BME280;9944;48.240;16.478;2024-03-17T16:00:49;100109.69;;;10.72;45.65
19594;BME280;9944;48.240;16.478;2024-03-17T16:05:13;100111.47;;;10.72;45.69
19594;BME280;9944;48.240;16.478;2024-03-17T16:09:36;100107.06;;;10.68;45.82
19594;BME280;9944;48.240;16.478;2024-03-17T16:14:00;100110.56;;;10.65;46.04
19594;BME280;9944;48.240;16.478;2024-03-17T16:18:23;100107.03;;;10.60;45.81
19594;BME280;9944;48.240;16.478;2024-03-17T16:22:47;100111.41;;;10.53;46.22
19594;BME280;9944;48.240;16.478;2024-03-17T16:27:14;100112.31;;;10.51;46.95
19594;BME280;9944;48.240;16.478;2024-03-17T16:31:39;100107.91;;;10.45;46.61
19594;BME280;9944;48.240;16.478;2024-03-17T16:36:03;100117.56;;;10.38;46.99
19594;BME280;9944;48.240;16.478;2024-03-17T16:40:26;100112.28;;;10.35;47.12
19594;BME280;9944;48.240;16.478;2024-03-17T16:44:55;100103.47;;;10.27;46.96
19594;BME280;9944;48.240;16.478;2024-03-17T16:49:22;100111.38;;;10.27;47.51
19594;BME280;9944;48.240;16.478;2024-03-17T16:53:47;100097.28;;;10.22;47.42
19594;BME280;9944;48.240;16.478;2024-03-17T16:58:09;100104.31;;;10.17;47.19
19594;BME280;9944;48.240;16.478;2024-03-17T17:02:32;100109.56;;;10.09;47.38
19594;BME280;9944;48.240;16.478;2024-03-17T17:06:55;100110.44;;;10.03;47.85
19594;BME280;9944;48.240;16.478;2024-03-17T17:11:18;100106.94;;;10.01;48.33
19594;BME280;9944;48.240;16.478;2024-03-17T17:15:40;100117.44;;;9.95;48.55
19594;BME280;9944;48.240;16.478;2024-03-17T17:20:04;100119.19;;;9.93;48.94
19594;BME280;9944;48.240;16.478;2024-03-17T17:24:27;100120.03;;;9.91;48.93
19594;BME280;9944;48.240;16.478;2024-03-17T17:28:54;100136.69;;;9.83;48.82
19594;BME280;9944;48.240;16.478;2024-03-17T17:33:17;100141.03;;;9.77;48.94
19594;BME280;9944;48.240;16.478;2024-03-17T17:37:40;100154.22;;;9.71;49.04
19594;BME280;9944;48.240;16.478;2024-03-17T17:42:04;100148.88;;;9.64;49.26
19594;BME280;9944;48.240;16.478;2024-03-17T17:46:27;100142.72;;;9.59;49.66
19594;BME280;9944;48.240;16.478;2024-03-17T17:50:53;100145.31;;;9.53;49.42
19594;BME280;9944;48.240;16.478;2024-03-17T17:55:17;100140.91;;;9.47;50.01
19594;BME280;9944;48.240;16.478;2024-03-17T17:59:40;100139.09;;;9.43;50.20
19594;BME280;9944;48.240;16.478;2024-03-17T18:04:03;100137.31;;;9.38;50.26
19594;BME280;9944;48.240;16.478;2024-03-17T18:08:27;100141.66;;;9.29;50.21
19594;BME280;9944;48.240;16.478;2024-03-17T18:12:50;100147.78;;;9.25;50.72
19594;BME280;9944;48.240;16.478;2024-03-17T18:17:13;100146.84;;;9.20;50.82
19594;BME280;9944;48.240;16.478;2024-03-17T18:21:38;100150.31;;;9.13;51.17
19594;BME280;9944;48.240;16.478;2024-03-17T18:26:04;100149.38;;;9.06;51.02
19594;BME280;9944;48.240;16.478;2024-03-17T18:30:28;100146.69;;;9.00;51.27
19594;BME280;9944;48.240;16.478;2024-03-17T18:34:52;100150.16;;;8.95;51.29
19594;BME280;9944;48.240;16.478;2024-03-17T18:39:15;100144.84;;;8.88;51.80
19594;BME280;9944;48.240;16.478;2024-03-17T18:43:39;100151.84;;;8.83;51.82
19594;BME280;9944;48.240;16.478;2024-03-17T18:48:08;100159.63;;;8.76;51.90
19594;BME280;9944;48.240;16.478;2024-03-17T18:52:32;100153.38;;;8.66;52.01
19594;BME280;9944;48.240;16.478;2024-03-17T18:56:54;100162.09;;;8.59;51.99
19594;BME280;9944;48.240;16.478;2024-03-17T19:01:16;100171.69;;;8.52;51.78
19594;BME280;9944;48.240;16.478;2024-03-17T19:05:38;100174.28;;;8.47;52.10
19594;BME280;9944;48.240;16.478;2024-03-17T19:10:06;100177.72;;;8.43;52.25
19594;BME280;9944;48.240;16.478;2024-03-17T19:14:30;100189.06;;;8.38;52.30
19594;BME280;9944;48.240;16.478;2024-03-17T19:18:52;100185.41;;;8.29;53.03
19594;BME280;9944;48.240;16.478;2024-03-17T19:23:14;100190.59;;;8.22;52.98
19594;BME280;9944;48.240;16.478;2024-03-17T19:27:38;100194.91;;;8.16;53.29
19594;BME280;9944;48.240;16.478;2024-03-17T19:32:01;100201.88;;;8.11;53.55
19594;BME280;9944;48.240;16.478;2024-03-17T19:36:23;100192.16;;;8.06;53.45
19594;BME280;9944;48.240;16.478;2024-03-17T19:40:52;100198.22;;;8.00;53.81
19594;BME280;9944;48.240;16.478;2024-03-17T19:45:16;100192.91;;;7.95;53.88
19594;BME280;9944;48.240;16.478;2024-03-17T19:49:40;100201.59;;;7.90;53.93
19594;BME280;9944;48.240;16.478;2024-03-17T19:54:02;100198.88;;;7.84;54.21
19594;BME280;9944;48.240;16.478;2024-03-17T19:58:25;100198.84;;;7.82;54.39
19594;BME280;9944;48.240;16.478;2024-03-17T20:02:48;100204.06;;;7.80;54.42
19594;BME280;9944;48.240;16.478;2024-03-17T20:07:15;100212.88;;;7.81;54.66
19594;BME280;9944;48.240;16.478;2024-03-17T20:11:37;100193.53;;;7.77;54.62
19594;BME280;9944;48.240;16.478;2024-03-17T20:15:59;100197.03;;;7.76;54.80
19594;BME280;9944;48.240;16.478;2024-03-17T20:20:23;100189.13;;;7.75;55.25
19594;BME280;9944;48.240;16.478;2024-03-17T20:24:46;100203.09;;;7.72;55.39
19594;BME280;9944;48.240;16.478;2024-03-17T20:29:09;100191.63;;;7.66;55.48
19594;BME280;9944;48.240;16.478;2024-03-17T20:33:32;100203.78;;;7.59;55.61
19594;BME280;9944;48.240;16.478;2024-03-17T20:37:55;100190.59;;;7.56;55.60
19594;BME280;9944;48.240;16.478;2024-03-17T20:42:19;100196.72;;;7.55;55.59
19594;BME280;9944;48.240;16.478;2024-03-17T20:46:42;100187.94;;;7.54;55.60
19594;BME280;9944;48.240;16.478;2024-03-17T20:51:04;100194.03;;;7.52;55.89
19594;BME280;9944;48.240;16.478;2024-03-17T20:55:28;100189.59;;;7.46;55.58
19594;BME280;9944;48.240;16.478;2024-03-17T20:59:52;100193.84;;;7.39;55.75
19594;BME280;9944;48.240;16.478;2024-03-17T21:04:19;100188.44;;;7.30;56.28
19594;BME280;9944;48.240;16.478;2024-03-17T21:08:41;100189.22;;;7.24;55.81
19594;BME280;9944;48.240;16.478;2024-03-17T21:13:05;100177.81;;;7.21;55.98
19594;BME280;9944;48.240;16.478;2024-03-17T21:17:28;100177.75;;;7.18;56.20
19594;BME280;9944;48.240;16.478;2024-03-17T21:21:50;100164.56;;;7.13;55.98
19594;BME280;9944;48.240;16.478;2024-03-17T21:26:12;100172.34;;;7.09;56.37
19594;BME280;9944;48.240;16.478;2024-03-17T21:30:36;100179.25;;;7.03;56.18
19594;BME280;9944;48.240;16.478;2024-03-17T21:34:58;100173.06;;;6.98;56.26
19594;BME280;9944;48.240;16.478;2024-03-17T21:39:21;100162.50;;;6.95;56.44
19594;BME280;9944;48.240;16.478;2024-03-17T21:43:46;100158.06;;;6.91;56.50
19594;BME280;9944;48.240;16.478;2024-03-17T21:48:09;100159.75;;;6.88;56.67
19594;BME280;9944;48.240;16.478;2024-03-17T21:52:32;100163.16;;;6.83;56.80
19594;BME280;9944;48.240;16.478;2024-03-17T21:56:54;100150.84;;;6.79;56.83
19594;BME280;9944;48.240;16.478;2024-03-17T22:01:16;100150.78;;;6.75;56.85
19594;BME280;9944;48.240;16.478;2024-03-17T22:05:47;100156.84;;;6.71;57.28
19594;BME280;9944;48.240;16.478;2024-03-17T22:10:11;100152.44;;;6.70;57.53
19594;BME280;9944;48.240;16.478;2024-03-17T22:14:33;100153.31;;;6.69;57.56
19594;BME280;9944;48.240;16.478;2024-03-17T22:18:56;100155.91;;;6.67;57.60
19594;BME280;9944;48.240;16.478;2024-03-17T22:23:19;100156.72;;;6.64;58.02
19594;BME280;9944;48.240;16.478;2024-03-17T22:27:42;100150.56;;;6.62;58.32
19594;BME280;9944;48.240;16.478;2024-03-17T22:32:04;100156.72;;;6.63;58.37
19594;BME280;9944;48.240;16.478;2024-03-17T22:36:27;100149.69;;;6.62;57.95
19594;BME280;9944;48.240;16.478;2024-03-17T22:40:55;100148.84;;;6.64;58.22
19594;BME280;9944;48.240;16.478;2024-03-17T22:45:18;100147.16;;;6.66;58.28
19594;BME280;9944;48.240;16.478;2024-03-17T22:49:41;100141.94;;;6.70;58.67
19594;BME280;9944;48.240;16.478;2024-03-17T22:54:04;100137.59;;;6.70;58.91
19594;BME280;9944;48.240;16.478;2024-03-17T22:58:28;100135.00;;;6.72;58.75
19594;BME280;9944;48.240;16.478;2024-03-17T23:02:50;100135.91;;;6.74;59.06
19594;BME280;9944;48.240;16.478;2024-03-17T23:07:12;100135.03;;;6.75;58.83
19594;BME280;9944;48.240;16.478;2024-03-17T23:11:35;100120.22;;;6.77;58.99
19594;BME280;9944;48.240;16.478;2024-03-17T23:15:59;100127.22;;;6.78;58.57